Time;durP1;ratioP1;P1;durP2;ratioP2;P2;SDS_P1;SDS_P2;PMS_P1;PMS_P2;Temp;Humidity;BMP_temperature;BMP_pressure;BME280_temperature;BME280_humidity;BME280_pressure;Samples;Min_cycle;Max_cycle;Signal;HPM_P1;HPM_P2
2021/04/09 06:11:05;;;;;;;96.25;41.58;;;5.60;99.90;;;;;;5061261;27;20524;-82
2021/04/09 06:13:31;;;;;;;87.22;32.13;;;5.70;99.90;;;;;;5022263;28;66534;-82
2021/04/09 06:15:57;;;;;;;80.13;31.83;;;5.70;99.90;;;;;;5029289;28;20025;-82
2021/04/09 06:18:23;;;;;;;93.05;33.20;;;5.70;99.90;;;;;;5023476;28;20075;-84
2021/04/09 06:20:49;;;;;;;94.80;32.58;;;5.60;99.90;;;;;;5024192;28;20053;-85
2021/04/09 06:23:15;;;;;;;100.68;33.47;;;5.60;99.90;;;;;;5021614;28;20036;-85
2021/04/09 06:25:40;;;;;;;90.32;31.42;;;5.60;99.90;;;;;;5031279;28;20032;-83
2021/04/09 06:28:06;;;;;;;75.03;31.52;;;5.60;99.90;;;;;;5033730;28;20039;-81
2021/04/09 06:30:32;;;;;;;86.30;32.80;;;5.60;99.90;;;;;;5025756;28;20116;-81
2021/04/09 06:32:57;;;;;;;89.32;31.85;;;5.70;99.90;;;;;;5036418;28;20451;-83
2021/04/09 06:35:23;;;;;;;78.10;31.42;;;5.70;99.90;;;;;;5029071;28;20072;-83
2021/04/09 06:37:48;;;;;;;94.47;33.72;;;5.70;99.90;;;;;;5020468;28;20096;-83
2021/04/09 06:40:15;;;;;;;89.32;30.92;;;5.70;99.90;;;;;;5024598;28;20037;-83
2021/04/09 06:42:42;;;;;;;89.10;32.15;;;5.70;99.90;;;;;;5041270;28;20053;-83
2021/04/09 06:45:10;;;;;;;84.90;32.20;;;5.70;99.90;;;;;;5024140;28;20041;-83
2021/04/09 06:47:35;;;;;;;86.05;31.27;;;5.80;99.90;;;;;;5030297;28;20025;-85
2021/04/09 06:50:02;;;;;;;91.20;31.00;;;5.80;99.90;;;;;;5035154;28;20064;-83
2021/04/09 06:52:28;;;;;;;89.30;29.55;;;5.80;99.90;;;;;;5018806;28;20105;-84
2021/04/09 06:54:54;;;;;;;100.07;31.17;;;5.80;99.90;;;;;;5024477;28;20101;-83
2021/04/09 06:57:21;;;;;;;93.20;30.77;;;5.90;99.90;;;;;;5024118;28;20021;-82
2021/04/09 06:59:47;;;;;;;92.95;28.00;;;5.90;99.90;;;;;;5047470;28;20489;-83
2021/04/09 07:02:15;;;;;;;97.03;27.20;;;5.90;99.90;;;;;;5026359;28;20038;-82
2021/04/09 07:04:42;;;;;;;89.75;25.65;;;6.00;99.90;;;;;;5027271;28;20037;-84
2021/04/09 07:07:13;;;;;;;79.85;24.67;;;6.00;99.90;;;;;;5021888;28;20458;-83
2021/04/09 07:09:39;;;;;;;78.68;22.23;;;6.00;99.90;;;;;;5024715;28;20064;-83
2021/04/09 07:12:06;;;;;;;82.95;24.55;;;6.00;99.90;;;;;;5027227;28;20030;-83
2021/04/09 07:14:56;;;;;;;83.03;24.08;;;6.00;99.90;;;;;;5035316;28;20021;-85
2021/04/09 07:17:33;;;;;;;82.10;22.33;;;6.00;99.90;;;;;;5033974;28;20018;-84
2021/04/09 07:20:10;;;;;;;69.97;23.92;;;6.00;99.90;;;;;;5047552;28;20065;-84
2021/04/09 07:22:36;;;;;;;66.75;19.80;;;6.00;99.90;;;;;;4999671;28;20155;-81
2021/04/09 07:25:09;;;;;;;103.00;23.30;;;6.10;99.90;;;;;;5004892;28;20088;-83
2021/04/09 07:27:35;;;;;;;80.18;20.10;;;6.10;99.90;;;;;;4993483;28;20036;-83
2021/04/09 07:30:01;;;;;;;85.50;15.93;;;6.10;99.90;;;;;;5008262;28;20041;-84
2021/04/09 07:32:28;;;;;;;74.47;14.85;;;6.20;99.90;;;;;;5012375;28;20034;-84
2021/04/09 07:35:14;;;;;;;89.10;15.05;;;6.20;99.90;;;;;;5012288;28;20070;-84
2021/04/09 07:37:53;;;;;;;57.65;13.68;;;6.20;99.90;;;;;;5008112;28;20018;-86
2021/04/09 07:40:24;;;;;;;76.07;13.07;;;6.20;99.90;;;;;;5005373;28;20022;-83
2021/04/09 07:42:50;;;;;;;67.85;13.52;;;6.20;99.90;;;;;;4994869;28;20036;-84
2021/04/09 07:45:19;;;;;;;55.88;11.80;;;6.20;99.90;;;;;;5009786;28;20080;-85
2021/04/09 07:47:59;;;;;;;72.53;11.85;;;6.30;99.90;;;;;;4999363;28;20037;-86
2021/04/09 07:50:51;;;;;;;66.88;11.77;;;6.30;99.90;;;;;;5014253;28;20033;-85
2021/04/09 07:53:37;;;;;;;64.82;9.80;;;6.40;99.90;;;;;;5006035;28;20032;-84
2021/04/09 07:56:09;;;;;;;48.15;10.43;;;6.40;99.90;;;;;;5012556;28;20391;-86
2021/04/09 07:58:34;;;;;;;53.55;8.02;;;6.40;99.90;;;;;;5014279;28;20470;-83
2021/04/09 08:01:01;;;;;;;74.28;11.90;;;6.20;99.90;;;;;;4998537;28;20038;-82
2021/04/09 08:03:37;;;;;;;49.45;9.52;;;6.10;99.90;;;;;;5017143;28;20038;-84
2021/04/09 08:06:14;;;;;;;56.25;8.20;;;6.10;99.90;;;;;;5013083;28;20088;-85
2021/04/09 08:08:56;;;;;;;57.42;9.68;;;6.10;99.90;;;;;;5003480;28;20033;-84
2021/04/09 08:11:33;;;;;;;60.05;8.85;;;6.10;99.90;;;;;;5009611;28;20030;-84
2021/04/09 08:14:11;;;;;;;58.10;9.52;;;6.10;99.90;;;;;;5007515;28;20109;-83
2021/04/09 08:16:42;;;;;;;85.13;9.63;;;6.10;99.90;;;;;;5004273;28;20382;-83
2021/04/09 08:19:10;;;;;;;61.42;10.43;;;6.10;99.90;;;;;;5001503;28;20073;-84
2021/04/09 08:21:42;;;;;;;84.25;9.07;;;6.10;99.90;;;;;;5008756;28;20022;-84
2021/04/09 08:24:10;;;;;;;59.63;9.45;;;6.10;99.90;;;;;;4995960;28;20041;-84
2021/04/09 08:26:40;;;;;;;37.33;6.75;;;6.00;99.90;;;;;;5004620;28;20117;-85
2021/04/09 08:29:08;;;;;;;64.88;9.20;;;6.00;99.90;;;;;;4999869;28;20390;-85
2021/04/09 08:31:35;;;;;;;52.85;9.23;;;6.00;99.90;;;;;;5003411;28;20023;-84
2021/04/09 08:34:01;;;;;;;55.50;7.80;;;5.90;99.90;;;;;;4992191;28;20023;-83
2021/04/09 08:36:28;;;;;;;61.15;8.45;;;5.90;99.90;;;;;;4991614;28;20045;-87
2021/04/09 08:38:54;;;;;;;48.08;6.47;;;5.80;99.90;;;;;;5001659;28;20521;-85
2021/04/09 08:41:20;;;;;;;46.30;7.68;;;5.80;99.90;;;;;;4996247;28;20474;-86
2021/04/09 08:43:47;;;;;;;42.20;6.13;;;5.80;99.90;;;;;;4996782;28;20036;-84
2021/04/09 08:46:13;;;;;;;38.15;5.10;;;5.80;99.90;;;;;;5006696;28;20027;-85
2021/04/09 08:48:39;;;;;;;48.90;9.52;;;5.80;99.90;;;;;;5001541;28;20030;-85
2021/04/09 08:51:06;;;;;;;57.80;6.10;;;5.90;99.90;;;;;;5009820;28;20030;-86
2021/04/09 08:53:33;;;;;;;50.20;5.95;;;5.90;99.90;;;;;;4995008;28;20360;-86
2021/04/09 08:55:58;;;;;;;41.03;5.95;;;6.00;99.90;;;;;;4992833;28;20530;-85
2021/04/09 08:58:24;;;;;;;48.83;6.15;;;6.00;99.90;;;;;;4992788;28;20160;-84
2021/04/09 09:00:52;;;;;;;59.58;8.63;;;6.00;99.90;;;;;;5006494;28;20045;-82
2021/04/09 09:03:31;;;;;;;44.75;6.88;;;6.10;99.90;;;;;;5010279;28;20036;-83
2021/04/09 09:05:58;;;;;;;56.60;5.80;;;6.10;99.90;;;;;;5011979;28;20447;-84
2021/04/09 09:08:43;;;;;;;50.00;6.57;;;6.10;99.90;;;;;;4995522;28;20026;-85
2021/04/09 09:11:10;;;;;;;51.35;6.80;;;6.10;99.90;;;;;;5023501;28;20042;-85
2021/04/09 09:13:44;;;;;;;61.60;6.00;;;6.10;99.90;;;;;;5008666;28;20036;-84
2021/04/09 09:16:16;;;;;;;35.15;4.90;;;6.00;99.90;;;;;;5007737;28;20528;-84
2021/04/09 09:18:52;;;;;;;32.25;4.28;;;5.90;99.90;;;;;;4997912;28;20157;-83
2021/04/09 09:21:19;;;;;;;41.85;5.05;;;5.80;99.90;;;;;;5006581;28;20022;-85
2021/04/09 09:23:59;;;;;;;34.83;4.07;;;5.80;99.90;;;;;;5006115;28;20022;-84
2021/04/09 09:26:40;;;;;;;34.08;4.18;;;5.90;99.90;;;;;;4992592;28;20018;-84
2021/04/09 09:29:25;;;;;;;27.17;4.88;;;6.10;99.90;;;;;;5007122;28;20459;-84
2021/04/09 09:32:07;;;;;;;46.05;5.10;;;6.30;99.90;;;;;;5012240;28;20022;-85
2021/04/09 09:34:36;;;;;;;26.63;4.88;;;6.40;99.90;;;;;;5004468;28;20014;-83
2021/04/09 09:37:20;;;;;;;37.85;5.18;;;6.60;99.90;;;;;;4991495;28;20084;-85
2021/04/09 09:39:53;;;;;;;38.67;4.90;;;6.70;99.90;;;;;;4994630;28;20026;-86
2021/04/09 09:42:32;;;;;;;24.55;4.32;;;6.70;99.90;;;;;;5012220;28;20156;-84
2021/04/09 09:44:59;;;;;;;41.30;6.20;;;6.80;99.90;;;;;;5011264;28;20068;-85
2021/04/09 09:47:27;;;;;;;52.83;6.05;;;7.00;99.90;;;;;;5012213;28;20025;-84
2021/04/09 09:50:10;;;;;;;44.92;5.18;;;7.20;99.90;;;;;;5010695;28;20084;-85
2021/04/09 09:53:02;;;;;;;52.90;5.75;;;7.40;99.90;;;;;;5011944;28;20025;-83
2021/04/09 09:55:45;;;;;;;39.47;6.82;;;7.60;99.90;;;;;;5010704;28;20040;-84
2021/04/09 09:58:14;;;;;;;46.40;7.25;;;7.70;99.90;;;;;;5010682;28;20026;-82
2021/04/09 10:00:54;;;;;;;36.80;6.28;;;7.70;99.90;;;;;;5010914;28;20030;-87
2021/04/09 10:03:33;;;;;;;36.95;6.15;;;7.70;99.90;;;;;;5012189;28;20030;-87
2021/04/09 10:06:00;;;;;;;38.90;5.20;;;7.90;99.90;;;;;;5011774;28;20025;-85
2021/04/09 10:08:28;;;;;;;47.40;6.13;;;7.90;99.90;;;;;;5012045;28;20109;-86
2021/04/09 10:10:58;;;;;;;51.80;6.10;;;7.80;99.90;;;;;;5010450;28;20483;-86
2021/04/09 10:13:29;;;;;;;45.83;6.30;;;7.90;99.90;;;;;;5011344;28;20025;-87
2021/04/09 10:16:05;;;;;;;39.83;5.85;;;7.90;99.90;;;;;;5011587;28;20030;-87
2021/04/09 10:18:31;;;;;;;35.85;5.13;;;7.90;99.90;;;;;;4992401;28;20049;-86
2021/04/09 10:21:11;;;;;;;38.90;6.35;;;8.00;99.90;;;;;;4992271;28;20483;-84
2021/04/09 10:23:37;;;;;;;36.13;4.93;;;8.10;99.90;;;;;;4991584;28;20537;-84
2021/04/09 10:26:02;;;;;;;42.28;5.43;;;8.00;99.90;;;;;;4992022;28;20026;-86
2021/04/09 10:28:34;;;;;;;36.38;5.68;;;8.00;99.90;;;;;;4992380;28;20042;-85
2021/04/09 10:31:10;;;;;;;42.97;4.95;;;8.10;99.90;;;;;;4991014;28;20113;-88
2021/04/09 10:33:44;;;;;;;28.65;4.50;;;8.00;99.90;;;;;;4991838;28;20029;-84
2021/04/09 10:36:17;;;;;;;32.75;6.22;;;8.10;99.90;;;;;;4991807;28;20053;-84
2021/04/09 10:38:42;;;;;;;41.38;6.10;;;8.10;99.90;;;;;;4990691;28;20026;-86
2021/04/09 10:41:41;;;;;;;38.25;5.95;;;8.20;99.90;;;;;;4990718;28;20038;-84
2021/04/09 10:44:17;;;;;;;34.85;5.05;;;8.20;99.90;;;;;;4989612;28;20473;-85
2021/04/09 10:46:54;;;;;;;42.00;5.90;;;8.20;99.90;;;;;;4990498;28;20521;-85
2021/04/09 10:49:29;;;;;;;30.45;4.55;;;8.30;99.90;;;;;;4991132;28;20125;-86
2021/04/09 10:52:05;;;;;;;37.10;4.50;;;8.50;99.90;;;;;;4992227;28;20501;-83
2021/04/09 10:54:33;;;;;;;34.95;5.20;;;8.70;99.90;;;;;;4990475;28;20061;-87
2021/04/09 10:57:01;;;;;;;46.45;5.20;;;8.60;99.90;;;;;;4994602;28;20375;-85
2021/04/09 10:59:39;;;;;;;54.03;6.53;;;8.40;99.90;;;;;;4995225;28;20022;-86
2021/04/09 11:02:07;;;;;;;45.05;5.78;;;8.30;99.90;;;;;;5009492;28;20084;-86
2021/04/09 11:04:34;;;;;;;43.90;6.18;;;8.20;99.90;;;;;;5010619;28;20056;-88
2021/04/09 11:07:02;;;;;;;39.00;6.70;;;8.40;99.90;;;;;;4994645;28;20023;-87
2021/04/09 11:09:42;;;;;;;38.45;5.07;;;8.50;99.90;;;;;;4995534;28;20585;-88
2021/04/09 11:12:25;;;;;;;40.40;5.30;;;8.50;99.90;;;;;;4994474;28;20030;-85
2021/04/09 11:15:02;;;;;;;40.58;5.88;;;8.50;99.90;;;;;;4994815;28;20525;-86
2021/04/09 11:17:29;;;;;;;61.05;6.00;;;8.60;99.90;;;;;;5005866;28;20048;-85
2021/04/09 11:19:57;;;;;;;40.97;6.13;;;8.60;99.90;;;;;;5015247;28;20026;-85
2021/04/09 11:22:28;;;;;;;46.80;6.65;;;8.70;99.90;;;;;;5013822;28;20572;-86
2021/04/09 11:25:05;;;;;;;43.65;6.20;;;8.50;99.90;;;;;;5014285;28;20060;-88
2021/04/09 11:27:36;;;;;;;37.15;5.75;;;8.40;99.90;;;;;;5013605;28;20418;-85
2021/04/09 11:30:09;;;;;;;41.75;6.13;;;8.70;99.90;;;;;;5014442;28;20034;-86
2021/04/09 11:32:39;;;;;;;49.33;7.07;;;9.40;99.90;;;;;;5014731;28;20109;-86
2021/04/09 11:35:09;;;;;;;60.70;8.18;;;9.50;99.90;;;;;;5012785;28;20090;-86
2021/04/09 11:37:42;;;;;;;33.30;6.95;;;9.40;99.90;;;;;;5013383;28;20390;-87
2021/04/09 11:40:09;;;;;;;55.78;6.95;;;9.10;99.90;;;;;;5014061;28;20512;-86
2021/04/09 11:42:35;;;;;;;36.88;6.35;;;9.00;99.90;;;;;;5014863;28;20494;-86
2021/04/09 11:45:07;;;;;;;39.88;7.05;;;8.90;99.90;;;;;;5012635;28;20030;-86
2021/04/09 11:47:40;;;;;;;32.55;5.75;;;8.80;99.90;;;;;;5013290;28;20073;-86
2021/04/09 11:50:13;;;;;;;34.05;5.57;;;8.90;99.90;;;;;;5013008;28;20586;-85
2021/04/09 11:52:48;;;;;;;46.58;6.40;;;8.70;99.90;;;;;;5014199;28;20034;-86
2021/04/09 11:55:14;;;;;;;40.58;5.35;;;8.70;99.90;;;;;;5012211;28;20022;-85
2021/04/09 11:57:40;;;;;;;42.55;7.18;;;8.80;99.90;;;;;;5012948;28;20479;-83
2021/04/09 12:00:16;;;;;;;42.78;6.05;;;8.90;99.90;;;;;;5012683;28;20029;-82
2021/04/09 12:02:58;;;;;;;40.28;5.60;;;8.90;99.90;;;;;;5013827;28;20062;-82
2021/04/09 12:05:27;;;;;;;45.80;7.53;;;8.90;99.90;;;;;;5012955;28;20026;-82
2021/04/09 12:07:54;;;;;;;59.92;6.93;;;8.80;99.90;;;;;;5013605;28;20030;-81
2021/04/09 12:10:22;;;;;;;46.83;6.72;;;8.80;99.90;;;;;;5013619;28;20061;-82
2021/04/09 12:12:48;;;;;;;42.53;6.25;;;8.60;99.90;;;;;;5012480;28;20022;-81
2021/04/09 12:15:14;;;;;;;35.55;5.43;;;8.30;99.90;;;;;;5013052;28;20105;-81
2021/04/09 12:17:40;;;;;;;22.70;4.60;;;8.30;99.90;;;;;;5012137;28;20032;-84
2021/04/09 12:20:12;;;;;;;33.35;3.60;;;8.20;99.90;;;;;;5013616;28;20446;-83
2021/04/09 12:22:39;;;;;;;23.88;3.63;;;8.10;99.90;;;;;;5013643;28;20021;-84
2021/04/09 12:25:05;;;;;;;26.58;4.18;;;8.20;99.90;;;;;;5012778;28;20099;-83
2021/04/09 12:27:31;;;;;;;36.83;5.03;;;8.20;99.90;;;;;;5013434;28;20030;-83
2021/04/09 12:29:57;;;;;;;31.23;4.57;;;8.30;99.90;;;;;;5013211;28;20033;-83
2021/04/09 12:32:23;;;;;;;31.25;4.47;;;8.40;99.90;;;;;;5013276;28;20100;-84
2021/04/09 12:34:48;;;;;;;30.75;4.45;;;8.70;99.90;;;;;;5012535;28;20148;-83
2021/04/09 12:37:14;;;;;;;28.88;4.43;;;8.70;99.90;;;;;;5013311;28;20449;-83
2021/04/09 12:39:40;;;;;;;21.90;4.43;;;8.50;99.90;;;;;;5013214;28;20029;-82
2021/04/09 12:42:07;;;;;;;21.23;4.15;;;8.30;99.90;;;;;;5013280;28;20061;-83
2021/04/09 12:44:33;;;;;;;31.77;4.22;;;8.20;99.90;;;;;;5011287;28;20516;-81
2021/04/09 12:46:58;;;;;;;29.48;4.57;;;8.20;99.90;;;;;;5011750;28;20116;-82
2021/04/09 12:49:24;;;;;;;31.25;3.67;;;8.20;99.90;;;;;;5012633;28;20061;-81
2021/04/09 12:51:50;;;;;;;26.05;4.57;;;8.20;99.90;;;;;;5013020;28;20026;-81
2021/04/09 12:54:16;;;;;;;20.92;2.90;;;8.30;99.90;;;;;;5012190;28;20092;-81
2021/04/09 12:56:42;;;;;;;29.75;4.75;;;8.20;99.90;;;;;;5012841;28;20521;-82
2021/04/09 12:59:08;;;;;;;27.83;3.58;;;8.50;99.90;;;;;;5012802;28;20517;-82
2021/04/09 13:01:33;;;;;;;20.88;4.00;;;9.90;99.90;;;;;;5012531;28;20077;-82
2021/04/09 13:03:59;;;;;;;23.08;3.50;;;10.90;99.90;;;;;;5010732;28;20490;-83
2021/04/09 13:06:25;;;;;;;14.77;2.63;;;11.10;99.90;;;;;;5012743;28;20037;-82
2021/04/09 13:08:50;;;;;;;20.50;3.83;;;11.20;99.90;;;;;;5011283;28;20032;-82
2021/04/09 13:11:16;;;;;;;22.65;3.45;;;11.10;99.90;;;;;;5012504;28;20426;-82
2021/04/09 13:13:41;;;;;;;23.83;4.38;;;11.30;99.90;;;;;;5012029;28;20018;-82
2021/04/09 13:16:07;;;;;;;28.90;2.85;;;11.00;99.90;;;;;;5027661;28;20026;-85
2021/04/09 13:18:34;;;;;;;25.80;2.80;;;10.90;99.90;;;;;;5012169;28;20030;-84
2021/04/09 13:21:02;;;;;;;24.25;3.75;;;10.50;99.90;;;;;;5012727;28;20097;-85
2021/04/09 13:23:27;;;;;;;25.65;3.30;;;10.30;99.90;;;;;;5012598;28;20041;-85
2021/04/09 13:25:54;;;;;;;25.58;4.35;;;10.40;99.90;;;;;;5011915;28;20022;-86
2021/04/09 13:28:24;;;;;;;26.70;3.22;;;10.10;99.90;;;;;;5012414;28;20025;-84
2021/04/09 13:30:58;;;;;;;21.20;3.65;;;10.30;99.90;;;;;;5010971;28;20026;-85
2021/04/09 13:33:27;;;;;;;;;;;10.10;99.90;;;;;;5012711;28;20022;-86
2021/04/09 13:35:54;;;;;;;22.13;4.35;;;10.10;99.90;;;;;;5011868;28;19905;-86
2021/04/09 13:38:19;;;;;;;22.05;3.55;;;10.30;99.90;;;;;;5011076;28;20113;-86
2021/04/09 13:40:46;;;;;;;28.60;3.90;;;10.50;99.90;;;;;;5011452;28;20101;-85
2021/04/09 13:43:12;;;;;;;21.83;3.42;;;10.50;99.90;;;;;;5010944;28;20030;-86
2021/04/09 13:45:37;;;;;;;28.92;4.50;;;10.90;99.90;;;;;;5010577;28;20389;-85
2021/04/09 13:48:04;;;;;;;17.48;3.72;;;10.60;99.90;;;;;;5011154;28;20026;-86
2021/04/09 13:50:29;;;;;;;24.98;3.55;;;10.20;99.90;;;;;;5012335;28;20037;-85
2021/04/09 13:52:55;;;;;;;23.77;3.72;;;10.30;99.90;;;;;;5012224;28;20030;-88
2021/04/09 13:55:20;;;;;;;18.60;3.42;;;10.20;99.90;;;;;;5010316;28;20045;-84
2021/04/09 13:57:46;;;;;;;23.52;4.03;;;9.60;99.90;;;;;;5012004;28;20034;-87
2021/04/09 14:00:12;;;;;;;21.77;3.58;;;9.30;99.90;;;;;;5012185;28;20080;-85
2021/04/09 14:02:38;;;;;;;20.73;3.45;;;9.10;99.90;;;;;;5010666;28;20267;-85
2021/04/09 14:05:04;;;;;;;18.90;2.63;;;8.90;99.90;;;;;;5006402;28;20534;-86
2021/04/09 14:07:29;;;;;;;21.65;3.55;;;8.80;99.90;;;;;;5012041;28;20079;-86
2021/04/09 14:09:55;;;;;;;20.10;3.17;;;8.60;99.90;;;;;;5011916;28;20037;-85
2021/04/09 14:12:22;;;;;;;20.15;3.10;;;8.50;99.90;;;;;;5010784;28;20018;-86
2021/04/09 14:14:47;;;;;;;27.17;3.67;;;8.30;99.90;;;;;;5011471;28;20080;-86
2021/04/09 14:17:14;;;;;;;23.25;3.50;;;8.30;99.90;;;;;;5002349;28;20026;-87
2021/04/09 14:19:40;;;;;;;38.10;5.18;;;8.30;99.90;;;;;;4993023;28;20049;-87
2021/04/09 14:22:06;;;;;;;22.00;3.92;;;8.40;99.90;;;;;;4993042;28;20551;-86
2021/04/09 14:24:31;;;;;;;26.30;3.95;;;8.50;99.90;;;;;;4992756;28;20053;-88
2021/04/09 14:26:57;;;;;;;27.25;3.90;;;8.60;99.90;;;;;;5008271;28;20394;-87
2021/04/09 14:29:23;;;;;;;26.13;3.25;;;8.50;99.90;;;;;;4993129;28;20442;-87
2021/04/09 14:31:48;;;;;;;25.35;3.08;;;8.50;99.90;;;;;;4993927;28;20035;-87
2021/04/09 14:34:14;;;;;;;28.55;5.20;;;8.50;99.90;;;;;;4996354;28;20022;-87
2021/04/09 14:36:39;;;;;;;26.38;4.25;;;8.40;99.90;;;;;;5012600;28;20022;-89
2021/04/09 14:39:05;;;;;;;25.08;3.97;;;8.60;99.90;;;;;;4996038;28;20025;-88
2021/04/09 14:41:31;;;;;;;23.38;3.22;;;8.70;99.90;;;;;;4996660;28;20037;-90
2021/04/09 14:43:56;;;;;;;18.40;2.97;;;8.80;99.90;;;;;;4996468;28;20030;-87
2021/04/09 14:46:22;;;;;;;18.98;3.42;;;8.80;99.90;;;;;;4996565;28;20026;-89
2021/04/09 14:48:47;;;;;;;18.95;3.30;;;8.60;99.90;;;;;;5012396;28;20026;-89
2021/04/09 14:51:13;;;;;;;15.25;3.10;;;8.60;99.90;;;;;;5011968;28;20486;-89
2021/04/09 14:53:39;;;;;;;28.55;4.03;;;8.60;99.90;;;;;;5010983;28;20014;-86
2021/04/09 14:56:05;;;;;;;35.65;4.57;;;8.50;99.90;;;;;;4995844;28;20023;-80
2021/04/09 14:58:30;;;;;;;14.13;3.20;;;8.60;99.90;;;;;;5010751;28;20558;-86
2021/04/09 15:00:56;;;;;;;25.50;3.25;;;8.50;99.90;;;;;;4996720;28;20435;-87
2021/04/09 15:03:21;;;;;;;38.05;3.97;;;8.40;99.90;;;;;;5012209;28;20450;-89
2021/04/09 15:05:47;;;;;;;24.92;2.78;;;8.60;99.90;;;;;;4996167;28;20034;-87
2021/04/09 15:08:12;;;;;;;19.60;3.70;;;8.60;99.90;;;;;;5011958;28;20081;-87
2021/04/09 15:10:38;;;;;;;19.45;2.80;;;8.40;99.90;;;;;;5011950;28;20045;-88
2021/04/09 15:13:04;;;;;;;20.67;3.33;;;8.40;99.90;;;;;;5012175;28;20109;-91
2021/04/09 15:15:29;;;;;;;29.55;4.30;;;8.30;99.90;;;;;;4995979;28;20022;-89
2021/04/09 15:17:55;;;;;;;23.13;2.83;;;8.30;99.90;;;;;;4996463;28;20034;-88
2021/04/09 15:20:21;;;;;;;20.73;3.75;;;8.50;99.90;;;;;;4996495;28;20034;-89
2021/04/09 15:22:46;;;;;;;30.35;4.20;;;8.40;99.90;;;;;;5011680;28;20026;-90
2021/04/09 15:25:13;;;;;;;25.33;3.33;;;8.30;99.90;;;;;;5010891;28;20100;-88
2021/04/09 15:27:39;;;;;;;18.35;3.33;;;8.10;99.90;;;;;;5011072;28;20041;-86
2021/04/09 15:30:10;;;;;;;20.58;2.95;;;8.00;99.90;;;;;;5011029;28;20034;-88
2021/04/09 15:32:36;;;;;;;18.05;3.00;;;7.90;99.90;;;;;;4995383;28;20025;-90
2021/04/09 15:35:02;;;;;;;19.90;3.80;;;8.10;99.90;;;;;;5011332;28;20030;-90
2021/04/09 15:37:27;;;;;;;26.92;3.97;;;8.10;99.90;;;;;;5011527;28;20041;-89
2021/04/09 15:39:55;;;;;;;30.63;3.53;;;8.00;99.90;;;;;;5010919;28;20102;-87
2021/04/09 15:42:21;;;;;;;14.05;2.88;;;8.10;99.90;;;;;;4995430;28;20046;-90
2021/04/09 15:44:46;;;;;;;19.02;3.28;;;8.00;99.90;;;;;;5010920;28;20034;-88
2021/04/09 15:47:12;;;;;;;26.83;3.30;;;8.00;99.90;;;;;;5011534;28;20033;-90
2021/04/09 15:49:38;;;;;;;41.15;4.55;;;8.00;99.90;;;;;;5010960;28;20065;-88
2021/04/09 15:52:04;;;;;;;38.72;3.95;;;8.00;99.90;;;;;;4995499;28;20057;-87
2021/04/09 15:54:30;;;;;;;26.80;5.30;;;7.80;99.90;;;;;;4994667;28;20030;-87
2021/04/09 15:56:56;;;;;;;35.03;4.00;;;7.60;99.90;;;;;;5010139;28;20033;-86
2021/04/09 15:59:22;;;;;;;30.45;6.05;;;7.60;99.90;;;;;;4993938;28;20030;-87
2021/04/09 16:01:47;;;;;;;20.20;4.05;;;7.70;99.90;;;;;;5010173;28;20495;-86
2021/04/09 16:04:13;;;;;;;28.33;4.93;;;7.60;99.90;;;;;;4994603;28;20030;-87
2021/04/09 16:06:38;;;;;;;28.67;4.30;;;7.60;99.90;;;;;;5010690;28;20117;-88
2021/04/09 16:09:04;;;;;;;25.80;4.22;;;7.40;99.90;;;;;;4995300;28;20387;-88
2021/04/09 16:11:30;;;;;;;39.40;4.18;;;7.40;99.90;;;;;;4995263;28;20031;-87
2021/04/09 16:13:55;;;;;;;30.77;4.00;;;7.40;99.90;;;;;;4994604;28;20026;-88
2021/04/09 16:16:21;;;;;;;31.92;5.32;;;7.30;99.90;;;;;;4995153;28;20474;-90
2021/04/09 16:18:49;;;;;;;33.17;4.25;;;7.20;99.90;;;;;;5010281;28;20121;-88
2021/04/09 16:21:15;;;;;;;23.63;3.63;;;7.10;99.90;;;;;;4994230;28;20049;-89
2021/04/09 16:23:40;;;;;;;27.02;3.90;;;7.00;99.90;;;;;;5009927;28;20126;-87
2021/04/09 16:26:06;;;;;;;27.48;4.13;;;7.00;99.90;;;;;;4993835;28;20471;-86
2021/04/09 16:28:31;;;;;;;40.40;3.63;;;6.90;99.90;;;;;;5024578;28;20089;-87
2021/04/09 16:30:57;;;;;;;22.33;3.95;;;6.90;99.90;;;;;;5026992;28;20458;-89
2021/04/09 16:33:24;;;;;;;19.92;3.03;;;7.00;99.90;;;;;;5014898;28;20028;-87
2021/04/09 16:35:51;;;;;;;20.63;2.50;;;7.30;99.90;;;;;;5014080;28;20036;-88
2021/04/09 16:38:17;;;;;;;17.33;2.70;;;7.80;99.90;;;;;;5015066;28;20068;-89
2021/04/09 16:40:42;;;;;;;26.40;2.83;;;7.70;99.90;;;;;;5014689;28;20033;-89
2021/04/09 16:43:08;;;;;;;20.42;3.00;;;7.60;99.90;;;;;;5012766;28;20030;-87
2021/04/09 16:45:33;;;;;;;43.33;3.35;;;7.40;99.90;;;;;;5013969;28;20033;-88
2021/04/09 16:47:59;;;;;;;25.40;3.47;;;7.10;99.90;;;;;;5014644;28;20026;-88
2021/04/09 16:50:25;;;;;;;21.42;3.60;;;6.80;99.90;;;;;;5013732;28;20161;-89
2021/04/09 16:52:51;;;;;;;23.42;3.25;;;6.70;99.90;;;;;;5013556;28;20486;-87
2021/04/09 16:55:17;;;;;;;35.53;4.57;;;6.60;99.90;;;;;;5011613;28;20022;-88
2021/04/09 16:57:44;;;;;;;16.08;3.50;;;6.50;99.90;;;;;;5013885;28;20029;-89
2021/04/09 17:00:12;;;;;;;24.13;3.13;;;6.50;99.90;;;;;;5013214;28;20022;-89
2021/04/09 17:02:37;;;;;;;23.75;3.63;;;6.50;99.90;;;;;;5014461;28;20022;-87
2021/04/09 17:05:05;;;;;;;15.90;3.20;;;6.50;99.90;;;;;;5013159;28;20026;-88
2021/04/09 17:07:31;;;;;;;40.83;5.00;;;6.40;99.90;;;;;;5002900;28;20034;-89
2021/04/09 17:09:56;;;;;;;23.10;4.78;;;6.50;99.90;;;;;;5012847;28;20496;-89
2021/04/09 17:12:22;;;;;;;25.88;4.30;;;6.40;99.90;;;;;;5014196;28;20029;-88
2021/04/09 17:14:47;;;;;;;23.60;4.10;;;6.30;99.90;;;;;;5012894;28;20018;-86
2021/04/09 17:17:13;;;;;;;32.33;5.80;;;6.20;99.90;;;;;;5003270;28;20098;-87
2021/04/09 17:19:38;;;;;;;43.15;4.55;;;6.20;99.90;;;;;;5009312;28;20042;-88
2021/04/09 17:22:04;;;;;;;30.75;4.82;;;6.20;99.90;;;;;;4993901;28;20035;-86
2021/04/09 17:24:29;;;;;;;32.90;4.80;;;6.20;99.90;;;;;;4993370;28;20022;-89
2021/04/09 17:26:55;;;;;;;30.33;4.70;;;6.20;99.90;;;;;;4993786;28;20037;-88
2021/04/09 17:29:21;;;;;;;32.95;4.95;;;6.20;99.90;;;;;;4993891;28;20033;-87
2021/04/09 17:31:46;;;;;;;23.85;4.38;;;6.10;99.90;;;;;;4994073;28;20105;-88
2021/04/09 17:34:12;;;;;;;22.02;3.53;;;6.10;99.90;;;;;;5008694;28;20033;-88
2021/04/09 17:36:37;;;;;;;30.38;4.85;;;6.00;99.90;;;;;;4993587;28;20024;-88
2021/04/09 17:39:04;;;;;;;29.65;4.70;;;6.00;99.90;;;;;;4993614;28;20036;-88
2021/04/09 17:41:30;;;;;;;27.30;3.50;;;6.00;99.90;;;;;;4993937;28;20019;-88
2021/04/09 17:43:56;;;;;;;25.23;4.28;;;5.90;99.90;;;;;;4993417;28;20029;-88
2021/04/09 17:46:21;;;;;;;38.63;5.93;;;5.90;99.90;;;;;;5009252;28;20026;-88
2021/04/09 17:48:46;;;;;;;32.60;4.70;;;5.90;99.90;;;;;;5009130;28;20030;-90
2021/04/09 17:51:12;;;;;;;28.73;4.00;;;5.80;99.90;;;;;;5009040;28;20054;-90
2021/04/09 17:53:37;;;;;;;29.45;4.95;;;5.80;99.90;;;;;;4993680;28;20037;-88
2021/04/09 17:56:04;;;;;;;23.00;3.72;;;5.70;99.90;;;;;;4993270;28;20029;-88
2021/04/09 17:58:29;;;;;;;19.02;3.20;;;5.70;99.90;;;;;;4993800;28;20026;-89
2021/04/09 18:00:55;;;;;;;25.60;4.43;;;5.60;99.90;;;;;;5008836;28;20023;-91
2021/04/09 18:03:21;;;;;;;26.92;4.55;;;5.70;99.90;;;;;;5009234;28;20092;-89
2021/04/09 18:05:52;;;;;;;18.83;3.10;;;5.60;99.90;;;;;;5008753;28;20034;-87
2021/04/09 18:08:19;;;;;;;29.88;3.88;;;5.60;99.90;;;;;;5009549;28;20101;-89
2021/04/09 18:10:44;;;;;;;28.65;4.25;;;5.50;99.90;;;;;;4993433;28;20041;-89
2021/04/09 18:13:10;;;;;;;26.55;5.47;;;5.50;99.90;;;;;;5007992;28;20039;-87
2021/04/09 18:15:35;;;;;;;16.83;3.60;;;5.30;99.90;;;;;;5006590;28;20360;-84
2021/04/09 18:18:01;;;;;;;32.75;4.28;;;5.30;99.90;;;;;;4990814;28;20018;-87
2021/04/09 18:20:27;;;;;;;25.83;4.07;;;5.30;99.90;;;;;;4992147;28;20053;-86
2021/04/09 18:22:52;;;;;;;32.53;3.95;;;5.30;99.90;;;;;;4990910;28;20041;-86
2021/04/09 18:25:18;;;;;;;20.95;3.83;;;5.20;99.90;;;;;;4991388;28;20031;-86
2021/04/09 18:27:43;;;;;;;28.20;3.78;;;5.20;99.90;;;;;;4990925;28;20119;-85
2021/04/09 18:30:11;;;;;;;30.17;3.97;;;5.10;99.90;;;;;;4992346;28;20030;-88
2021/04/09 18:32:37;;;;;;;25.77;5.00;;;5.00;99.90;;;;;;5007599;28;20026;-87
2021/04/09 18:35:04;;;;;;;40.67;4.43;;;5.00;99.90;;;;;;5006893;28;20050;-85
2021/04/09 18:37:30;;;;;;;30.70;5.15;;;5.00;99.90;;;;;;4992274;28;20026;-86
2021/04/09 18:39:56;;;;;;;32.42;4.90;;;4.90;99.90;;;;;;4992074;28;20042;-86
2021/04/09 18:42:22;;;;;;;25.13;4.05;;;4.90;99.90;;;;;;5007168;28;20030;-85
2021/04/09 18:44:50;;;;;;;31.73;4.40;;;4.80;99.90;;;;;;5007209;28;20030;-86
2021/04/09 18:47:17;;;;;;;31.38;3.88;;;4.80;99.90;;;;;;4993081;28;20109;-88
2021/04/09 18:49:42;;;;;;;33.03;4.88;;;4.80;99.90;;;;;;5008610;28;20037;-88
2021/04/09 18:52:08;;;;;;;19.42;4.50;;;4.70;99.90;;;;;;4993369;28;20038;-88
2021/04/09 18:54:34;;;;;;;31.75;4.20;;;4.60;99.90;;;;;;4992252;28;20035;-88
2021/04/09 18:56:59;;;;;;;30.52;6.20;;;4.50;99.90;;;;;;4992313;28;20018;-87
2021/04/09 18:59:26;;;;;;;26.98;4.00;;;4.40;99.90;;;;;;4992879;28;20045;-89
2021/04/09 19:01:52;;;;;;;25.73;4.00;;;4.50;99.90;;;;;;4992989;28;20046;-87